Time;durP1;ratioP1;P1;durP2;ratioP2;P2;SDS_P1;SDS_P2;PMS_P1;PMS_P2;Temp;Humidity;BMP_temperature;BMP_pressure;BME280_temperature;BME280_humidity;BME280_pressure;Samples;Min_cycle;Max_cycle;Signal;HPM_P1;HPM_P2
2023/12/04 00:00:07;;;;;;;29.33;14.80;;;;;;;;;;5056131;28;20460;-62
2023/12/04 00:02:34;;;;;;;25.25;14.25;;;;;;;;;;5062590;28;20429;-62
2023/12/04 00:05:02;;;;;;;31.00;16.17;;;;;;;;;;5049293;28;20433;-62
2023/12/04 00:07:34;;;;;;;26.08;14.70;;;;;;;;;;5039107;28;20519;-62
2023/12/04 00:10:01;;;;;;;29.00;15.90;;;;;;;;;;5042738;28;20426;-62
2023/12/04 00:12:28;;;;;;;30.92;16.27;;;;;;;;;;5052018;28;20781;-62
2023/12/04 00:14:55;;;;;;;30.90;16.60;;;;;;;;;;5044924;28;20559;-62
2023/12/04 00:17:23;;;;;;;32.42;16.52;;;;;;;;;;5070275;28;20874;-62
2023/12/04 00:19:53;;;;;;;24.05;14.50;;;;;;;;;;5036987;28;20428;-62
2023/12/04 00:22:20;;;;;;;26.23;14.35;;;;;;;;;;5061822;28;21102;-62
2023/12/04 00:24:49;;;;;;;25.20;14.53;;;;;;;;;;5062461;28;20466;-62
2023/12/04 00:27:17;;;;;;;26.02;14.35;;;;;;;;;;5060703;28;20431;-63
2023/12/04 00:29:44;;;;;;;27.30;14.55;;;;;;;;;;5053513;28;20435;-63
2023/12/04 00:32:14;;;;;;;25.05;14.00;;;;;;;;;;5040992;28;20492;-62
2023/12/04 00:34:41;;;;;;;25.10;14.02;;;;;;;;;;5056373;28;20516;-62
2023/12/04 00:37:08;;;;;;;26.40;14.75;;;;;;;;;;5048628;28;20448;-62
2023/12/04 00:39:35;;;;;;;22.70;13.38;;;;;;;;;;5058147;28;20440;-63
2023/12/04 00:42:03;;;;;;;22.30;13.93;;;;;;;;;;5058861;28;20421;-63
2023/12/04 00:44:32;;;;;;;23.67;13.90;;;;;;;;;;5058212;28;20435;-63
2023/12/04 00:47:02;;;;;;;26.07;14.50;;;;;;;;;;5044393;28;20426;-63
2023/12/04 00:49:29;;;;;;;22.75;13.73;;;;;;;;;;5065889;28;20427;-62
2023/12/04 00:51:57;;;;;;;25.83;14.52;;;;;;;;;;5069608;28;20516;-62
2023/12/04 00:54:24;;;;;;;26.15;14.38;;;;;;;;;;5061438;28;20428;-63
2023/12/04 00:56:55;;;;;;;23.25;13.30;;;;;;;;;;5057035;28;20435;-63
2023/12/04 00:59:24;;;;;;;23.10;12.80;;;;;;;;;;5046444;28;20894;-63
2023/12/04 01:01:51;;;;;;;24.65;13.82;;;;;;;;;;5054468;28;20520;-63
2023/12/04 01:04:18;;;;;;;24.10;13.45;;;;;;;;;;5060346;28;20497;-63
2023/12/04 01:06:52;;;;;;;23.65;13.48;;;;;;;;;;5053783;28;20437;-63
2023/12/04 01:09:23;;;;;;;23.23;13.40;;;;;;;;;;5058509;28;20445;-63
2023/12/04 01:11:54;;;;;;;21.92;12.70;;;;;;;;;;5058433;28;20510;-63
2023/12/04 01:14:22;;;;;;;23.35;12.77;;;;;;;;;;5052839;28;20851;-65
2023/12/04 01:16:49;;;;;;;23.52;13.07;;;;;;;;;;5062052;28;20434;-63
2023/12/04 01:19:16;;;;;;;22.38;13.52;;;;;;;;;;5038297;28;20440;-63
2023/12/04 01:21:43;;;;;;;21.65;12.80;;;;;;;;;;5050505;28;20464;-63
2023/12/04 01:24:11;;;;;;;21.80;12.73;;;;;;;;;;5046567;28;20432;-63
2023/12/04 01:26:38;;;;;;;20.83;12.23;;;;;;;;;;5030853;28;20464;-63
2023/12/04 01:29:05;;;;;;;21.90;12.45;;;;;;;;;;5041227;28;20429;-63
2023/12/04 01:31:38;;;;;;;21.65;12.05;;;;;;;;;;5058044;28;20457;-63
2023/12/04 01:34:13;;;;;;;20.97;12.13;;;;;;;;;;5036038;28;20424;-63
2023/12/04 01:36:42;;;;;;;21.67;12.38;;;;;;;;;;5049099;28;20438;-63
2023/12/04 01:39:10;;;;;;;22.88;13.02;;;;;;;;;;5053022;28;20425;-63
2023/12/04 01:41:37;;;;;;;21.55;12.48;;;;;;;;;;5052491;28;20510;-63
2023/12/04 01:44:04;;;;;;;21.45;12.02;;;;;;;;;;5051813;28;20425;-63
2023/12/04 01:46:31;;;;;;;24.20;13.13;;;;;;;;;;5063404;28;20466;-63
2023/12/04 01:48:59;;;;;;;20.83;12.02;;;;;;;;;;5051622;28;20922;-63
2023/12/04 01:51:27;;;;;;;23.38;13.30;;;;;;;;;;5049072;28;20429;-63
2023/12/04 01:53:54;;;;;;;21.58;12.73;;;;;;;;;;5056378;28;20428;-63
2023/12/04 01:56:21;;;;;;;23.83;13.50;;;;;;;;;;5035525;28;20528;-63
2023/12/04 01:58:48;;;;;;;21.85;12.65;;;;;;;;;;5044907;28;20425;-63
2023/12/04 02:01:16;;;;;;;22.90;13.27;;;;;;;;;;5048454;28;20447;-63
2023/12/04 02:03:43;;;;;;;25.33;13.93;;;;;;;;;;5039430;28;20835;-63
2023/12/04 02:06:15;;;;;;;23.97;13.37;;;;;;;;;;5055514;28;20433;-64
2023/12/04 02:08:43;;;;;;;26.35;13.82;;;;;;;;;;5040856;28;20425;-64
2023/12/04 02:11:10;;;;;;;23.17;12.80;;;;;;;;;;5052705;28;20435;-64
2023/12/04 02:13:37;;;;;;;25.88;14.13;;;;;;;;;;5030028;28;20433;-64
2023/12/04 02:16:06;;;;;;;23.70;12.70;;;;;;;;;;5047901;28;20429;-64
2023/12/04 02:18:33;;;;;;;22.33;12.88;;;;;;;;;;5059836;28;20429;-64
2023/12/04 02:21:01;;;;;;;22.63;13.17;;;;;;;;;;5050948;28;20762;-63
2023/12/04 02:23:29;;;;;;;23.37;12.83;;;;;;;;;;5052425;28;20510;-64
2023/12/04 02:26:08;;;;;;;21.67;13.13;;;;;;;;;;5053837;28;20923;-63
2023/12/04 02:28:36;;;;;;;21.23;12.88;;;;;;;;;;5054352;28;20470;-64
2023/12/04 02:31:08;;;;;;;23.50;13.27;;;;;;;;;;5037648;28;20500;-65
2023/12/04 02:33:36;;;;;;;22.90;12.80;;;;;;;;;;5061126;28;20443;-64
2023/12/04 02:36:06;;;;;;;23.23;12.93;;;;;;;;;;5057895;28;20440;-64
2023/12/04 02:38:33;;;;;;;22.83;13.32;;;;;;;;;;5060668;28;20507;-64
2023/12/04 02:41:01;;;;;;;21.83;13.57;;;;;;;;;;5064068;28;20822;-64
2023/12/04 02:43:28;;;;;;;22.63;12.88;;;;;;;;;;5048575;28;20433;-64
2023/12/04 02:45:55;;;;;;;20.63;12.73;;;;;;;;;;5045318;28;20486;-64
2023/12/04 02:48:22;;;;;;;23.38;13.15;;;;;;;;;;5048260;28;20433;-64
2023/12/04 02:50:53;;;;;;;23.40;12.48;;;;;;;;;;5022579;28;20451;-64
2023/12/04 02:53:20;;;;;;;21.95;12.55;;;;;;;;;;5050587;28;20487;-64
2023/12/04 02:55:49;;;;;;;19.70;12.07;;;;;;;;;;5069055;28;20503;-64
2023/12/04 02:58:17;;;;;;;24.50;12.85;;;;;;;;;;5043364;28;20432;-64
2023/12/04 03:00:44;;;;;;;22.73;12.63;;;;;;;;;;5052886;28;20425;-64
2023/12/04 03:03:14;;;;;;;20.77;12.63;;;;;;;;;;5051738;28;20516;-64
2023/12/04 03:05:44;;;;;;;22.60;12.95;;;;;;;;;;5054437;28;20460;-64
2023/12/04 03:08:11;;;;;;;22.63;13.15;;;;;;;;;;5056018;28;20433;-64
2023/12/04 03:10:38;;;;;;;23.40;13.02;;;;;;;;;;5037238;28;20430;-64
2023/12/04 03:13:09;;;;;;;22.50;12.90;;;;;;;;;;5052439;28;20429;-64
2023/12/04 03:15:36;;;;;;;22.05;12.68;;;;;;;;;;5060356;28;20907;-64
2023/12/04 03:18:06;;;;;;;21.50;12.50;;;;;;;;;;5051091;28;20425;-64
2023/12/04 03:20:37;;;;;;;22.63;12.73;;;;;;;;;;5043886;28;20478;-64
2023/12/04 03:23:05;;;;;;;20.98;12.65;;;;;;;;;;5046558;28;20508;-64
2023/12/04 03:25:32;;;;;;;24.47;12.90;;;;;;;;;;5055593;28;20459;-64
2023/12/04 03:28:00;;;;;;;22.90;12.05;;;;;;;;;;5055593;28;20516;-64
2023/12/04 03:30:27;;;;;;;22.13;12.80;;;;;;;;;;5033611;28;20435;-64
2023/12/04 03:32:54;;;;;;;23.10;12.27;;;;;;;;;;5046285;28;20934;-64
2023/12/04 03:35:21;;;;;;;23.02;12.90;;;;;;;;;;5067055;28;20514;-64
2023/12/04 03:37:49;;;;;;;21.95;12.90;;;;;;;;;;5052732;28;20798;-64
2023/12/04 03:40:17;;;;;;;23.43;12.73;;;;;;;;;;5036703;28;20429;-65
2023/12/04 03:42:44;;;;;;;23.83;13.48;;;;;;;;;;5050839;28;20433;-64
2023/12/04 03:45:11;;;;;;;20.25;11.95;;;;;;;;;;5059443;28;20420;-64
2023/12/04 03:47:38;;;;;;;22.42;12.80;;;;;;;;;;5063527;28;20463;-64
2023/12/04 03:50:08;;;;;;;21.55;11.90;;;;;;;;;;5062272;28;20436;-64
2023/12/04 03:52:35;;;;;;;21.77;12.43;;;;;;;;;;5049056;28;20809;-64
2023/12/04 03:55:03;;;;;;;21.08;12.35;;;;;;;;;;5058661;28;20832;-64
2023/12/04 03:57:32;;;;;;;21.00;12.65;;;;;;;;;;5050701;28;20440;-64
2023/12/04 04:00:00;;;;;;;21.58;12.73;;;;;;;;;;5066619;28;20793;-64
2023/12/04 04:02:27;;;;;;;19.92;12.40;;;;;;;;;;5054436;28;20771;-64
2023/12/04 04:04:55;;;;;;;21.80;12.95;;;;;;;;;;5052098;28;20918;-65
2023/12/04 04:07:26;;;;;;;21.13;12.77;;;;;;;;;;5053801;28;20499;-65
2023/12/04 04:09:56;;;;;;;19.83;12.63;;;;;;;;;;5054641;28;20433;-64
2023/12/04 04:12:23;;;;;;;19.20;12.07;;;;;;;;;;5054236;28;20429;-64
2023/12/04 04:14:53;;;;;;;24.38;12.80;;;;;;;;;;5060474;28;20435;-64
2023/12/04 04:17:20;;;;;;;19.93;12.10;;;;;;;;;;5053661;28;20468;-64
2023/12/04 04:19:48;;;;;;;21.15;12.50;;;;;;;;;;5057591;28;20437;-65
2023/12/04 04:22:15;;;;;;;20.65;12.38;;;;;;;;;;5053927;28;20507;-64
2023/12/04 04:24:42;;;;;;;20.83;12.75;;;;;;;;;;5056349;28;20431;-64
2023/12/04 04:27:09;;;;;;;20.08;12.07;;;;;;;;;;5061937;28;20439;-64
2023/12/04 04:29:36;;;;;;;21.48;12.52;;;;;;;;;;5045623;28;20436;-64
2023/12/04 04:32:04;;;;;;;20.13;11.70;;;;;;;;;;5053806;28;20763;-64
2023/12/04 04:34:33;;;;;;;19.95;11.80;;;;;;;;;;5054533;28;20548;-64
2023/12/04 04:37:00;;;;;;;20.52;12.02;;;;;;;;;;5065498;28;20458;-64
2023/12/04 04:39:31;;;;;;;20.35;12.45;;;;;;;;;;5057030;28;20435;-64
2023/12/04 04:41:58;;;;;;;21.23;12.27;;;;;;;;;;5031687;28;20785;-64
2023/12/04 04:44:25;;;;;;;21.50;12.48;;;;;;;;;;5061896;28;20524;-64
2023/12/04 04:46:54;;;;;;;20.63;12.30;;;;;;;;;;5050493;28;20437;-65
2023/12/04 04:49:21;;;;;;;21.17;12.15;;;;;;;;;;5042454;28;20473;-64
2023/12/04 04:51:48;;;;;;;19.45;12.02;;;;;;;;;;5060855;28;20464;-65
2023/12/04 04:54:15;;;;;;;20.95;12.00;;;;;;;;;;5050499;28;21014;-64
2023/12/04 04:56:42;;;;;;;22.50;12.23;;;;;;;;;;5055903;28;20436;-65
2023/12/04 04:59:10;;;;;;;20.83;12.23;;;;;;;;;;5042028;28;20437;-65
2023/12/04 05:01:37;;;;;;;19.42;11.80;;;;;;;;;;5027350;28;20506;-65
2023/12/04 05:04:04;;;;;;;19.92;12.23;;;;;;;;;;5051289;28;20510;-65
2023/12/04 05:06:31;;;;;;;21.65;12.57;;;;;;;;;;5030522;28;20433;-65
2023/12/04 05:08:58;;;;;;;20.73;11.90;;;;;;;;;;5042659;28;20518;-64
2023/12/04 05:11:28;;;;;;;20.30;12.15;;;;;;;;;;5049945;28;20433;-65
2023/12/04 05:13:56;;;;;;;21.15;12.23;;;;;;;;;;5069940;28;20435;-64
2023/12/04 05:16:23;;;;;;;21.58;12.27;;;;;;;;;;5046081;28;20520;-64
2023/12/04 05:18:50;;;;;;;19.93;12.10;;;;;;;;;;5048386;28;20425;-65
2023/12/04 05:21:18;;;;;;;21.58;12.93;;;;;;;;;;5043426;28;21179;-64
2023/12/04 05:23:45;;;;;;;22.77;13.23;;;;;;;;;;5069374;28;20439;-65
2023/12/04 05:26:12;;;;;;;21.30;12.75;;;;;;;;;;5067627;28;20461;-65
2023/12/04 05:28:41;;;;;;;22.48;13.00;;;;;;;;;;5050633;28;20433;-65
2023/12/04 05:31:08;;;;;;;21.25;12.63;;;;;;;;;;5056517;28;20984;-65
2023/12/04 05:33:36;;;;;;;20.63;12.48;;;;;;;;;;5057906;28;20964;-65
2023/12/04 05:36:06;;;;;;;22.50;13.00;;;;;;;;;;5064546;28;20440;-64
2023/12/04 05:38:33;;;;;;;22.27;12.88;;;;;;;;;;5047324;28;20459;-65
2023/12/04 05:41:01;;;;;;;20.42;12.18;;;;;;;;;;5052638;28;20492;-65
2023/12/04 05:43:30;;;;;;;21.27;12.50;;;;;;;;;;5050079;28;20430;-65
2023/12/04 05:45:58;;;;;;;20.58;12.65;;;;;;;;;;5061253;28;20485;-65
2023/12/04 05:48:25;;;;;;;20.25;12.35;;;;;;;;;;5058633;28;20478;-65
2023/12/04 05:50:53;;;;;;;21.48;12.52;;;;;;;;;;5053620;28;20839;-65
2023/12/04 05:53:20;;;;;;;20.63;12.70;;;;;;;;;;5044852;28;20429;-65
2023/12/04 05:55:47;;;;;;;24.30;13.70;;;;;;;;;;5051452;28;20453;-65
2023/12/04 05:58:14;;;;;;;22.35;12.50;;;;;;;;;;5046797;28;20503;-65
2023/12/04 06:00:41;;;;;;;20.92;12.73;;;;;;;;;;5048655;28;20431;-65
2023/12/04 06:03:09;;;;;;;21.70;12.70;;;;;;;;;;5041464;28;20805;-65
2023/12/04 06:05:36;;;;;;;21.85;12.57;;;;;;;;;;5067371;28;20435;-65
2023/12/04 06:08:04;;;;;;;21.13;12.48;;;;;;;;;;5052431;28;21212;-65
2023/12/04 06:10:33;;;;;;;23.27;13.23;;;;;;;;;;5050639;28;20453;-65
2023/12/04 06:13:00;;;;;;;19.95;12.57;;;;;;;;;;5056833;28;20439;-65
2023/12/04 06:15:27;;;;;;;21.33;12.43;;;;;;;;;;5055652;28;20427;-64
2023/12/04 06:17:55;;;;;;;23.25;13.25;;;;;;;;;;5052299;28;20472;-64
2023/12/04 06:20:22;;;;;;;21.90;13.10;;;;;;;;;;5047323;28;20425;-64
2023/12/04 06:22:49;;;;;;;23.02;13.18;;;;;;;;;;5060686;28;20433;-64
2023/12/04 06:25:17;;;;;;;22.05;13.70;;;;;;;;;;5043795;28;20491;-65
2023/12/04 06:27:44;;;;;;;21.00;12.50;;;;;;;;;;5046063;28;20440;-65
2023/12/04 06:30:11;;;;;;;24.33;13.82;;;;;;;;;;5047437;28;20425;-64
2023/12/04 06:32:39;;;;;;;22.42;13.77;;;;;;;;;;5052924;28;20429;-64
2023/12/04 06:35:06;;;;;;;23.15;13.45;;;;;;;;;;5041675;28;20536;-64
2023/12/04 06:37:35;;;;;;;24.40;13.20;;;;;;;;;;5052126;28;20447;-65
2023/12/04 06:40:02;;;;;;;21.55;12.85;;;;;;;;;;5047419;28;20515;-64
2023/12/04 06:42:33;;;;;;;22.92;12.95;;;;;;;;;;5063790;28;20430;-64
2023/12/04 06:45:00;;;;;;;22.48;12.80;;;;;;;;;;5045719;28;20520;-64
2023/12/04 06:47:29;;;;;;;22.37;13.13;;;;;;;;;;5043783;28;20495;-65
2023/12/04 06:49:56;;;;;;;21.30;12.68;;;;;;;;;;5038755;28;20436;-64
2023/12/04 06:52:23;;;;;;;21.53;12.60;;;;;;;;;;5056145;28;20480;-64
2023/12/04 06:54:53;;;;;;;20.92;12.52;;;;;;;;;;5058780;28;20947;-64
2023/12/04 06:57:21;;;;;;;20.97;12.33;;;;;;;;;;5046965;28;20505;-64
2023/12/04 06:59:48;;;;;;;20.40;12.45;;;;;;;;;;5047414;28;20439;-64
2023/12/04 07:02:15;;;;;;;20.83;12.85;;;;;;;;;;5056054;28;20431;-64
2023/12/04 07:04:45;;;;;;;19.60;12.23;;;;;;;;;;5047227;28;20434;-64
2023/12/04 07:07:12;;;;;;;19.98;11.75;;;;;;;;;;5044415;28;20425;-65
2023/12/04 07:09:42;;;;;;;20.42;12.50;;;;;;;;;;5041208;28;20501;-64
2023/12/04 07:12:12;;;;;;;20.45;12.32;;;;;;;;;;5061543;28;20495;-64
2023/12/04 07:14:42;;;;;;;20.33;12.52;;;;;;;;;;5047226;28;20479;-64
2023/12/04 07:17:12;;;;;;;21.52;12.57;;;;;;;;;;5037987;28;20528;-65
2023/12/04 07:19:41;;;;;;;19.67;12.40;;;;;;;;;;5058435;28;20431;-64
2023/12/04 07:22:08;;;;;;;19.30;12.00;;;;;;;;;;5027041;28;20907;-64
2023/12/04 07:24:35;;;;;;;18.05;11.90;;;;;;;;;;5049556;28;20767;-64
2023/12/04 07:27:03;;;;;;;18.77;11.90;;;;;;;;;;5059835;28;20433;-64
2023/12/04 07:29:30;;;;;;;20.08;11.98;;;;;;;;;;5038652;28;20431;-64
2023/12/04 07:31:58;;;;;;;20.40;13.10;;;;;;;;;;5063195;28;20605;-64
2023/12/04 07:34:28;;;;;;;20.08;12.68;;;;;;;;;;5064233;28;20432;-64
2023/12/04 07:36:56;;;;;;;18.73;11.60;;;;;;;;;;5045829;28;20512;-64
2023/12/04 07:39:23;;;;;;;18.27;11.60;;;;;;;;;;5053044;28;20435;-64
2023/12/04 07:41:50;;;;;;;18.75;11.52;;;;;;;;;;5034476;28;20429;-64
2023/12/04 07:44:17;;;;;;;18.50;11.75;;;;;;;;;;5051815;28;20425;-64
2023/12/04 07:46:47;;;;;;;20.27;11.80;;;;;;;;;;5043015;28;20433;-64
2023/12/04 07:49:14;;;;;;;18.02;10.77;;;;;;;;;;5045324;28;20475;-64
2023/12/04 07:51:49;;;;;;;16.08;10.75;;;;;;;;;;5055107;28;20435;-65
2023/12/04 07:54:16;;;;;;;19.30;11.38;;;;;;;;;;5059109;28;20438;-67
2023/12/04 07:56:43;;;;;;;20.17;12.60;;;;;;;;;;5069502;28;20914;-66
2023/12/04 07:59:10;;;;;;;17.02;11.25;;;;;;;;;;5049704;28;20918;-64
2023/12/04 08:01:37;;;;;;;18.65;11.05;;;;;;;;;;5046494;28;20460;-65
2023/12/04 08:04:05;;;;;;;16.60;11.20;;;;;;;;;;5059762;28;20424;-65
2023/12/04 08:06:32;;;;;;;16.50;11.48;;;;;;;;;;5068359;28;20497;-65
2023/12/04 08:09:00;;;;;;;16.25;10.23;;;;;;;;;;5057120;28;20433;-65
2023/12/04 08:11:27;;;;;;;18.15;11.43;;;;;;;;;;5047238;28;20794;-66
2023/12/04 08:13:54;;;;;;;19.63;11.77;;;;;;;;;;5051365;28;20453;-65
2023/12/04 08:16:21;;;;;;;22.80;13.52;;;;;;;;;;5059122;28;20436;-66
2023/12/04 08:18:49;;;;;;;23.48;14.30;;;;;;;;;;5055170;28;20543;-65
2023/12/04 08:21:19;;;;;;;17.67;11.70;;;;;;;;;;5062194;28;20481;-65
2023/12/04 08:23:46;;;;;;;19.15;11.85;;;;;;;;;;5047850;28;20496;-65
2023/12/04 08:26:15;;;;;;;16.52;10.60;;;;;;;;;;5050502;28;20436;-65
2023/12/04 08:28:45;;;;;;;16.67;10.10;;;;;;;;;;5060654;28;20519;-65
2023/12/04 08:31:15;;;;;;;14.93;9.90;;;;;;;;;;5062350;28;20510;-65
2023/12/04 08:33:43;;;;;;;15.73;10.75;;;;;;;;;;5040921;28;20522;-65
2023/12/04 08:36:13;;;;;;;15.32;10.25;;;;;;;;;;5052520;28;20434;-65
2023/12/04 08:38:40;;;;;;;17.27;10.30;;;;;;;;;;5060845;28;20429;-65
2023/12/04 08:41:08;;;;;;;14.63;9.73;;;;;;;;;;5051006;28;20494;-65
2023/12/04 08:43:35;;;;;;;14.50;9.82;;;;;;;;;;5056412;28;20433;-65
2023/12/04 08:46:02;;;;;;;14.23;9.70;;;;;;;;;;5049157;28;20427;-65
2023/12/04 08:48:29;;;;;;;15.25;9.95;;;;;;;;;;5060416;28;20432;-65
2023/12/04 08:50:57;;;;;;;14.77;9.80;;;;;;;;;;5048485;28;20471;-65
2023/12/04 08:53:24;;;;;;;14.93;9.63;;;;;;;;;;5062381;28;20433;-65
2023/12/04 08:55:52;;;;;;;15.93;10.00;;;;;;;;;;5047262;28;20488;-65
2023/12/04 08:58:22;;;;;;;13.20;9.20;;;;;;;;;;5063692;28;20936;-65
2023/12/04 09:00:49;;;;;;;14.27;9.80;;;;;;;;;;5057517;28;20431;-65
2023/12/04 09:03:20;;;;;;;13.88;9.07;;;;;;;;;;5047765;28;20417;-65
2023/12/04 09:05:58;;;;;;;14.25;9.25;;;;;;;;;;5047423;28;20495;-65
2023/12/04 09:08:27;;;;;;;13.05;9.13;;;;;;;;;;5053871;28;20435;-65
2023/12/04 09:11:05;;;;;;;14.20;9.13;;;;;;;;;;5047118;28;20516;-65
2023/12/04 09:13:35;;;;;;;13.48;8.77;;;;;;;;;;5066746;28;20423;-65
2023/12/04 09:16:02;;;;;;;13.55;9.48;;;;;;;;;;5042206;28;20469;-65
2023/12/04 09:18:29;;;;;;;12.23;8.70;;;;;;;;;;5054526;28;20435;-65
2023/12/04 09:20:56;;;;;;;12.02;8.70;;;;;;;;;;5053403;28;20431;-66
2023/12/04 09:23:24;;;;;;;14.48;9.43;;;;;;;;;;5042535;28;20431;-65
2023/12/04 09:25:52;;;;;;;13.82;8.82;;;;;;;;;;5033625;28;20914;-65
2023/12/04 09:28:19;;;;;;;12.95;9.15;;;;;;;;;;5056265;28;20437;-65
2023/12/04 09:30:47;;;;;;;15.93;10.13;;;;;;;;;;5046713;28;20546;-65
2023/12/04 09:33:14;;;;;;;14.55;9.82;;;;;;;;;;5028497;28;20440;-65
2023/12/04 09:35:42;;;;;;;16.42;9.80;;;;;;;;;;5047847;28;20906;-65
2023/12/04 09:38:10;;;;;;;12.98;9.02;;;;;;;;;;5048751;28;20437;-65
2023/12/04 09:40:37;;;;;;;13.75;9.10;;;;;;;;;;5052450;28;20498;-65
2023/12/04 09:43:06;;;;;;;14.63;9.23;;;;;;;;;;5057202;28;20899;-65
2023/12/04 09:45:34;;;;;;;13.20;9.20;;;;;;;;;;5057856;28;20425;-64
2023/12/04 09:48:01;;;;;;;14.35;9.02;;;;;;;;;;5050159;28;20429;-65
2023/12/04 09:50:29;;;;;;;12.07;8.50;;;;;;;;;;5056951;28;20433;-65
2023/12/04 09:52:58;;;;;;;12.60;8.53;;;;;;;;;;5028428;28;20425;-65
2023/12/04 09:55:25;;;;;;;13.48;8.13;;;;;;;;;;5047773;28;20467;-65
2023/12/04 09:57:57;;;;;;;13.15;8.45;;;;;;;;;;5043473;28;20433;-65
2023/12/04 10:00:31;;;;;;;12.88;8.82;;;;;;;;;;5048350;28;21170;-65
2023/12/04 10:03:02;;;;;;;13.32;8.75;;;;;;;;;;5038755;28;20483;-65
2023/12/04 10:05:29;;;;;;;14.73;9.43;;;;;;;;;;5061222;28;20456;-65
2023/12/04 10:07:57;;;;;;;14.07;9.68;;;;;;;;;;5041014;28;21260;-65
2023/12/04 10:10:25;;;;;;;17.55;9.50;;;;;;;;;;5039624;28;20439;-65
2023/12/04 10:12:52;;;;;;;13.75;8.57;;;;;;;;;;5058964;28;20439;-65
2023/12/04 10:15:19;;;;;;;12.57;8.70;;;;;;;;;;5060242;28;20432;-65
2023/12/04 10:17:51;;;;;;;14.15;8.63;;;;;;;;;;5056152;28;20437;-65
2023/12/04 10:20:18;;;;;;;13.30;9.50;;;;;;;;;;5061247;28;20431;-65
2023/12/04 10:23:12;;;;;;;14.65;9.32;;;;;;;;;;5049612;28;20429;-65
2023/12/04 10:25:42;;;;;;;13.53;9.20;;;;;;;;;;5054180;28;20517;-65
2023/12/04 10:28:10;;;;;;;12.18;8.73;;;;;;;;;;5048959;28;20511;-65
2023/12/04 10:30:40;;;;;;;13.02;8.70;;;;;;;;;;5047800;28;20804;-65
2023/12/04 10:33:07;;;;;;;14.15;8.82;;;;;;;;;;5064306;28;20442;-64
2023/12/04 10:35:39;;;;;;;11.80;7.90;;;;;;;;;;5059542;28;20504;-64
2023/12/04 10:38:07;;;;;;;13.85;8.38;;;;;;;;;;5059675;28;21012;-65
2023/12/04 10:40:35;;;;;;;11.50;8.32;;;;;;;;;;5039128;28;20507;-64
2023/12/04 10:43:14;;;;;;;11.82;7.88;;;;;;;;;;5034782;28;20503;-64
2023/12/04 10:45:43;;;;;;;12.30;8.55;;;;;;;;;;5050431;28;20456;-64
2023/12/04 10:48:11;;;;;;;12.75;8.20;;;;;;;;;;5038390;28;20494;-65
2023/12/04 10:50:42;;;;;;;13.02;8.27;;;;;;;;;;5046725;28;20474;-65
2023/12/04 10:53:10;;;;;;;14.13;8.68;;;;;;;;;;5061661;28;20427;-64
2023/12/04 10:55:38;;;;;;;13.10;8.93;;;;;;;;;;5048404;28;21029;-64
2023/12/04 10:58:09;;;;;;;12.65;8.65;;;;;;;;;;5062970;28;20486;-64
2023/12/04 11:00:38;;;;;;;12.75;8.88;;;;;;;;;;5050983;28;20487;-65
2023/12/04 11:03:09;;;;;;;13.65;8.60;;;;;;;;;;5037275;28;20436;-64
2023/12/04 11:05:41;;;;;;;14.30;8.50;;;;;;;;;;5052099;28;20503;-65
2023/12/04 11:08:12;;;;;;;12.40;8.30;;;;;;;;;;5046729;28;20465;-64
2023/12/04 11:10:47;;;;;;;16.50;8.80;;;;;;;;;;5042637;28;20477;-65
2023/12/04 11:13:18;;;;;;;15.40;9.47;;;;;;;;;;5060823;28;20493;-64
2023/12/04 11:15:50;;;;;;;15.17;9.17;;;;;;;;;;5056991;28;20428;-64
2023/12/04 11:18:21;;;;;;;14.35;9.18;;;;;;;;;;5069217;28;20513;-64
2023/12/04 11:20:52;;;;;;;13.88;8.90;;;;;;;;;;5048538;28;20436;-64
2023/12/04 11:23:19;;;;;;;20.10;9.60;;;;;;;;;;5063701;28;20868;-64
2023/12/04 11:25:49;;;;;;;16.80;9.38;;;;;;;;;;5051024;28;20424;-65
2023/12/04 11:28:18;;;;;;;14.05;9.57;;;;;;;;;;5052373;28;20468;-64
2023/12/04 11:30:45;;;;;;;16.08;9.65;;;;;;;;;;5042654;28;20440;-65
2023/12/04 11:33:12;;;;;;;14.63;9.47;;;;;;;;;;5033752;28;20441;-64
2023/12/04 11:35:40;;;;;;;13.93;9.30;;;;;;;;;;5040033;28;20449;-64
2023/12/04 11:38:09;;;;;;;16.10;9.98;;;;;;;;;;5038033;28;20429;-64
2023/12/04 11:40:41;;;;;;;15.65;10.48;;;;;;;;;;5046852;28;20587;-64
2023/12/04 11:43:27;;;;;;;18.40;10.47;;;;;;;;;;5062114;28;20877;-64
2023/12/04 11:45:54;;;;;;;18.33;10.23;;;;;;;;;;5049749;28;20525;-64
2023/12/04 11:48:24;;;;;;;16.92;9.77;;;;;;;;;;5052667;28;20520;-64
2023/12/04 11:50:57;;;;;;;15.13;9.77;;;;;;;;;;5058213;28;20464;-64
2023/12/04 11:53:24;;;;;;;16.67;10.60;;;;;;;;;;5041610;28;20433;-64
2023/12/04 11:55:56;;;;;;;17.80;10.43;;;;;;;;;;5043628;28;20425;-64
2023/12/04 11:58:24;;;;;;;17.10;10.38;;;;;;;;;;5046255;28;20460;-64
2023/12/04 12:00:52;;;;;;;17.40;10.85;;;;;;;;;;5047375;28;20804;-64
2023/12/04 12:03:21;;;;;;;15.25;10.10;;;;;;;;;;5043954;28;20421;-64
2023/12/04 12:05:50;;;;;;;15.98;10.18;;;;;;;;;;5030344;28;20425;-64
2023/12/04 12:08:20;;;;;;;16.03;9.77;;;;;;;;;;5042320;28;21056;-64
2023/12/04 12:10:48;;;;;;;16.38;10.82;;;;;;;;;;5037011;28;20520;-64
2023/12/04 12:13:15;;;;;;;18.23;11.82;;;;;;;;;;5029334;28;20429;-64
2023/12/04 12:15:42;;;;;;;19.38;11.40;;;;;;;;;;5023848;28;20437;-64
2023/12/04 12:18:10;;;;;;;18.45;10.82;;;;;;;;;;5040489;28;20486;-64
2023/12/04 12:20:38;;;;;;;17.87;10.53;;;;;;;;;;5025762;28;20457;-64
2023/12/04 12:23:05;;;;;;;19.83;10.68;;;;;;;;;;5037944;28;20515;-64
2023/12/04 12:25:32;;;;;;;16.55;10.52;;;;;;;;;;5041038;28;20457;-64
2023/12/04 12:28:03;;;;;;;14.88;10.27;;;;;;;;;;5043989;28;20479;-64
2023/12/04 12:30:30;;;;;;;15.85;10.00;;;;;;;;;;5035762;28;20520;-64
2023/12/04 12:32:58;;;;;;;16.33;10.32;;;;;;;;;;5037838;28;20439;-64
2023/12/04 12:35:25;;;;;;;15.97;9.73;;;;;;;;;;5040384;28;20942;-64
2023/12/04 12:37:53;;;;;;;15.68;10.07;;;;;;;;;;5040150;28;21259;-64
2023/12/04 12:40:21;;;;;;;15.13;10.00;;;;;;;;;;5046046;28;20425;-64
2023/12/04 12:42:48;;;;;;;14.75;9.98;;;;;;;;;;5047523;28;20429;-64
2023/12/04 12:45:18;;;;;;;16.20;10.15;;;;;;;;;;5045409;28;20516;-64
2023/12/04 12:47:47;;;;;;;17.75;10.43;;;;;;;;;;5045824;28;20432;-64
2023/12/04 12:50:15;;;;;;;15.45;9.73;;;;;;;;;;5046083;28;20440;-64
2023/12/04 12:52:43;;;;;;;15.70;10.00;;;;;;;;;;5045059;28;20999;-64
2023/12/04 12:55:10;;;;;;;15.75;9.75;;;;;;;;;;5036157;28;21003;-64
2023/12/04 12:57:38;;;;;;;17.70;10.90;;;;;;;;;;5046270;28;20440;-64
2023/12/04 13:00:06;;;;;;;14.93;9.63;;;;;;;;;;5038807;28;20449;-64
2023/12/04 13:02:37;;;;;;;18.92;10.32;;;;;;;;;;5041227;28;20433;-64
2023/12/04 13:05:05;;;;;;;17.60;10.93;;;;;;;;;;5025924;28;20811;-64
2023/12/04 13:07:34;;;;;;;16.75;10.32;;;;;;;;;;5037179;28;20527;-64
2023/12/04 13:10:03;;;;;;;16.50;10.65;;;;;;;;;;5024743;28;20911;-64
2023/12/04 13:12:30;;;;;;;16.48;10.50;;;;;;;;;;5046101;28;20441;-64
2023/12/04 13:14:57;;;;;;;16.90;11.48;;;;;;;;;;5035582;28;20498;-64
2023/12/04 13:17:24;;;;;;;18.10;11.57;;;;;;;;;;5040885;28;21263;-64
2023/12/04 13:19:51;;;;;;;18.52;11.85;;;;;;;;;;5037466;28;20439;-64
2023/12/04 13:22:19;;;;;;;19.13;12.13;;;;;;;;;;5046255;28;20432;-64
2023/12/04 13:24:46;;;;;;;19.90;13.02;;;;;;;;;;5032215;28;20421;-64
2023/12/04 13:27:13;;;;;;;19.03;11.80;;;;;;;;;;5042848;28;20436;-64
2023/12/04 13:29:40;;;;;;;18.27;11.25;;;;;;;;;;5042001;28;20457;-63
2023/12/04 13:32:11;;;;;;;21.10;12.50;;;;;;;;;;5046450;28;20522;-63
2023/12/04 13:34:38;;;;;;;20.17;13.23;;;;;;;;;;5047192;28;20433;-64
2023/12/04 13:37:05;;;;;;;18.27;12.20;;;;;;;;;;5039472;28;20528;-63
2023/12/04 13:39:48;;;;;;;20.05;12.25;;;;;;;;;;5038388;28;20518;-63
2023/12/04 13:45:03;;;;;;;16.85;11.48;;;;;;;;;;5045301;28;20506;-63
2023/12/04 13:47:36;;;;;;;19.88;12.23;;;;;;;;;;5041002;28;20429;-63
2023/12/04 13:50:04;;;;;;;19.90;12.27;;;;;;;;;;5042293;28;20426;-63
2023/12/04 13:52:34;;;;;;;18.50;12.20;;;;;;;;;;5038710;28;20432;-63
2023/12/04 13:55:08;;;;;;;20.57;12.80;;;;;;;;;;5042473;28;20449;-63
2023/12/04 13:57:44;;;;;;;18.77;12.02;;;;;;;;;;5043934;28;20444;-63
2023/12/04 14:00:11;;;;;;;18.23;11.87;;;;;;;;;;5042607;28;20985;-63
2023/12/04 14:02:38;;;;;;;17.98;12.48;;;;;;;;;;5023318;28;20430;-63
2023/12/04 14:05:06;;;;;;;18.27;11.93;;;;;;;;;;5038479;28;20434;-63
2023/12/04 14:07:33;;;;;;;19.52;12.32;;;;;;;;;;5037250;28;20431;-63
2023/12/04 14:10:01;;;;;;;24.90;14.30;;;;;;;;;;5041229;28;20433;-63
2023/12/04 14:12:28;;;;;;;21.15;13.63;;;;;;;;;;5050563;28;20438;-63
2023/12/04 14:14:58;;;;;;;20.10;13.15;;;;;;;;;;5043373;28;20809;-63
2023/12/04 14:17:26;;;;;;;24.70;14.98;;;;;;;;;;5041169;28;20429;-63
2023/12/04 14:19:53;;;;;;;20.13;12.68;;;;;;;;;;5045532;28;20433;-63
2023/12/04 14:22:20;;;;;;;32.85;19.02;;;;;;;;;;5043840;28;20795;-63
2023/12/04 14:24:47;;;;;;;22.73;12.83;;;;;;;;;;5044598;28;20915;-63
2023/12/04 14:27:16;;;;;;;20.30;13.50;;;;;;;;;;5041892;28;20429;-63
2023/12/04 14:29:44;;;;;;;22.80;13.73;;;;;;;;;;5058906;28;20432;-63